sensor_id;sensor_type;location;lat;lon;timestamp;pressure;altitude;pressure_sealevel;temperature;humidity
11223;BME280;5668;52.012;8.724;2022-11-20T00:00:41;99901.34;;;0.74;72.72
11223;BME280;5668;52.012;8.724;2022-11-20T00:03:09;99898.66;;;0.77;73.09
11223;BME280;5668;52.012;8.724;2022-11-20T00:05:36;99901.78;;;0.62;72.21
11223;BME280;5668;52.012;8.724;2022-11-20T00:08:04;99908.00;;;0.55;73.01
11223;BME280;5668;52.012;8.724;2022-11-20T00:10:31;99907.22;;;0.53;73.67
11223;BME280;5668;52.012;8.724;2022-11-20T00:12:59;99906.34;;;0.54;74.19
11223;BME280;5668;52.012;8.724;2022-11-20T00:15:26;99902.78;;;0.58;73.94
11223;BME280;5668;52.012;8.724;2022-11-20T00:17:53;99903.44;;;0.63;74.63
11223;BME280;5668;52.012;8.724;2022-11-20T00:20:22;99899.84;;;0.68;74.61
11223;BME280;5668;52.012;8.724;2022-11-20T00:22:50;99893.88;;;0.68;74.48
11223;BME280;5668;52.012;8.724;2022-11-20T00:25:17;99887.06;;;0.68;74.11
11223;BME280;5668;52.012;8.724;2022-11-20T00:27:44;99890.34;;;0.72;74.22
11223;BME280;5668;52.012;8.724;2022-11-20T00:30:12;99890.25;;;0.75;74.70
11223;BME280;5668;52.012;8.724;2022-11-20T00:32:39;99889.28;;;0.77;74.54
11223;BME280;5668;52.012;8.724;2022-11-20T00:35:06;99890.94;;;0.78;74.55
11223;BME280;5668;52.012;8.724;2022-11-20T00:37:35;99882.38;;;0.80;74.59
11223;BME280;5668;52.012;8.724;2022-11-20T00:40:03;99883.22;;;0.80;74.52
11223;BME280;5668;52.012;8.724;2022-11-20T00:42:31;99876.34;;;0.82;74.47
11223;BME280;5668;52.012;8.724;2022-11-20T00:44:59;99881.31;;;0.85;74.49
11223;BME280;5668;52.012;8.724;2022-11-20T00:47:27;99873.78;;;0.82;73.42
11223;BME280;5668;52.012;8.724;2022-11-20T00:49:54;99878.13;;;0.80;74.03
11223;BME280;5668;52.012;8.724;2022-11-20T00:52:21;99871.31;;;0.79;73.70
11223;BME280;5668;52.012;8.724;2022-11-20T00:54:49;99871.28;;;0.81;73.79
11223;BME280;5668;52.012;8.724;2022-11-20T00:57:17;99874.72;;;0.80;74.02
11223;BME280;5668;52.012;8.724;2022-11-20T00:59:44;99878.16;;;0.78;73.34
11223;BME280;5668;52.012;8.724;2022-11-20T01:02:11;99884.13;;;0.79;73.36
11223;BME280;5668;52.012;8.724;2022-11-20T01:04:38;99885.84;;;0.78;74.14
11223;BME280;5668;52.012;8.724;2022-11-20T01:07:05;99884.06;;;0.81;73.75
11223;BME280;5668;52.012;8.724;2022-11-20T01:09:33;99886.66;;;0.79;73.45
11223;BME280;5668;52.012;8.724;2022-11-20T01:12:01;99891.97;;;0.74;72.84
11223;BME280;5668;52.012;8.724;2022-11-20T01:14:28;99885.22;;;0.72;73.05
11223;BME280;5668;52.012;8.724;2022-11-20T01:16:56;99889.41;;;0.74;73.53
11223;BME280;5668;52.012;8.724;2022-11-20T01:19:23;99876.50;;;0.77;73.41
11223;BME280;5668;52.012;8.724;2022-11-20T01:21:53;99886.78;;;0.76;73.27
11223;BME280;5668;52.012;8.724;2022-11-20T01:24:21;99879.94;;;0.76;73.34
11223;BME280;5668;52.012;8.724;2022-11-20T01:26:50;99881.66;;;0.76;73.48
11223;BME280;5668;52.012;8.724;2022-11-20T01:29:20;99881.66;;;0.76;74.11
11223;BME280;5668;52.012;8.724;2022-11-20T01:31:48;99876.53;;;0.76;73.48
11223;BME280;5668;52.012;8.724;2022-11-20T01:34:17;99869.78;;;0.75;73.65
11223;BME280;5668;52.012;8.724;2022-11-20T01:36:46;99866.50;;;0.71;71.99
11223;BME280;5668;52.012;8.724;2022-11-20T01:39:15;99866.28;;;0.54;71.34
11223;BME280;5668;52.012;8.724;2022-11-20T01:41:43;99864.94;;;0.44;71.93
11223;BME280;5668;52.012;8.724;2022-11-20T01:44:48;99862.78;;;0.33;72.56
11223;BME280;5668;52.012;8.724;2022-11-20T01:47:17;99856.78;;;0.34;72.90
11223;BME280;5668;52.012;8.724;2022-11-20T01:49:50;99867.78;;;0.36;73.11
11223;BME280;5668;52.012;8.724;2022-11-20T01:52:21;99864.22;;;0.41;73.29
11223;BME280;5668;52.012;8.724;2022-11-20T01:54:53;99865.78;;;0.45;74.15
11223;BME280;5668;52.012;8.724;2022-11-20T01:57:23;99863.16;;;0.46;74.49
11223;BME280;5668;52.012;8.724;2022-11-20T01:59:55;99856.19;;;0.51;74.17
11223;BME280;5668;52.012;8.724;2022-11-20T02:02:24;99856.19;;;0.51;74.26
11223;BME280;5668;52.012;8.724;2022-11-20T02:04:55;99860.41;;;0.52;73.86
11223;BME280;5668;52.012;8.724;2022-11-20T02:07:24;99855.22;;;0.54;74.35
11223;BME280;5668;52.012;8.724;2022-11-20T02:09:51;99851.78;;;0.55;73.77
11223;BME280;5668;52.012;8.724;2022-11-20T02:12:19;99846.66;;;0.55;73.85
11223;BME280;5668;52.012;8.724;2022-11-20T02:15:05;99839.88;;;0.54;73.66
11223;BME280;5668;52.012;8.724;2022-11-20T02:17:33;99845.81;;;0.54;73.65
11223;BME280;5668;52.012;8.724;2022-11-20T02:20:00;99845.81;;;0.54;73.88
11223;BME280;5668;52.012;8.724;2022-11-20T02:22:33;99842.44;;;0.54;74.18
11223;BME280;5668;52.012;8.724;2022-11-20T02:25:04;99843.28;;;0.54;73.65
11223;BME280;5668;52.012;8.724;2022-11-20T02:27:33;99839.00;;;0.55;73.98
11223;BME280;5668;52.012;8.724;2022-11-20T02:30:03;99839.78;;;0.57;73.21
11223;BME280;5668;52.012;8.724;2022-11-20T02:32:33;99838.09;;;0.56;73.09
11223;BME280;5668;52.012;8.724;2022-11-20T02:35:07;99831.31;;;0.55;72.99
11223;BME280;5668;52.012;8.724;2022-11-20T02:37:37;99825.31;;;0.56;72.87
11223;BME280;5668;52.012;8.724;2022-11-20T02:40:09;99821.09;;;0.55;72.92
11223;BME280;5668;52.012;8.724;2022-11-20T02:42:38;99819.44;;;0.54;72.77
11223;BME280;5668;52.012;8.724;2022-11-20T02:45:06;99831.38;;;0.53;73.17
11223;BME280;5668;52.012;8.724;2022-11-20T02:47:33;99822.94;;;0.51;72.91
11223;BME280;5668;52.012;8.724;2022-11-20T02:50:00;99824.66;;;0.51;73.14
11223;BME280;5668;52.012;8.724;2022-11-20T02:52:28;99828.94;;;0.50;72.97
11223;BME280;5668;52.012;8.724;2022-11-20T02:54:55;99815.38;;;0.48;73.04
11223;BME280;5668;52.012;8.724;2022-11-20T02:57:24;99811.09;;;0.49;73.00
11223;BME280;5668;52.012;8.724;2022-11-20T02:59:51;99813.66;;;0.49;72.83
11223;BME280;5668;52.012;8.724;2022-11-20T03:02:18;99808.59;;;0.47;73.33
11223;BME280;5668;52.012;8.724;2022-11-20T03:04:46;99806.88;;;0.48;73.19
11223;BME280;5668;52.012;8.724;2022-11-20T03:07:13;99807.84;;;0.45;72.85
11223;BME280;5668;52.012;8.724;2022-11-20T03:09:40;99806.09;;;0.46;72.80
11223;BME280;5668;52.012;8.724;2022-11-20T03:12:08;99804.47;;;0.45;72.91
11223;BME280;5668;52.012;8.724;2022-11-20T03:14:36;99795.13;;;0.44;72.71
11223;BME280;5668;52.012;8.724;2022-11-20T03:17:03;99791.72;;;0.43;72.67
11223;BME280;5668;52.012;8.724;2022-11-20T03:19:31;99789.16;;;0.43;72.70
11223;BME280;5668;52.012;8.724;2022-11-20T03:21:58;99778.16;;;0.41;72.88
11223;BME280;5668;52.012;8.724;2022-11-20T03:24:26;99783.22;;;0.43;72.73
11223;BME280;5668;52.012;8.724;2022-11-20T03:26:53;99784.13;;;0.42;72.41
11223;BME280;5668;52.012;8.724;2022-11-20T03:29:20;99792.72;;;0.39;72.28
11223;BME280;5668;52.012;8.724;2022-11-20T03:31:49;99797.13;;;0.35;72.26
11223;BME280;5668;52.012;8.724;2022-11-20T03:34:16;99793.00;;;0.31;72.58
11223;BME280;5668;52.012;8.724;2022-11-20T03:36:43;99780.16;;;0.33;72.19
11223;BME280;5668;52.012;8.724;2022-11-20T03:39:11;99796.34;;;0.33;72.19
11223;BME280;5668;52.012;8.724;2022-11-20T03:41:39;99792.06;;;0.34;72.43
11223;BME280;5668;52.012;8.724;2022-11-20T03:44:10;99785.28;;;0.33;72.54
11223;BME280;5668;52.012;8.724;2022-11-20T03:46:38;99781.00;;;0.33;72.22
11223;BME280;5668;52.012;8.724;2022-11-20T03:49:06;99782.78;;;0.31;72.38
11223;BME280;5668;52.012;8.724;2022-11-20T03:51:34;99778.63;;;0.29;72.52
11223;BME280;5668;52.012;8.724;2022-11-20T03:54:04;99769.25;;;0.29;72.61
11223;BME280;5668;52.012;8.724;2022-11-20T03:56:33;99772.63;;;0.30;72.52
11223;BME280;5668;52.012;8.724;2022-11-20T03:59:01;99777.78;;;0.28;72.35
11223;BME280;5668;52.012;8.724;2022-11-20T04:01:31;99774.47;;;0.26;72.68
11223;BME280;5668;52.012;8.724;2022-11-20T04:03:58;99783.78;;;0.27;72.60
11223;BME280;5668;52.012;8.724;2022-11-20T04:06:29;99792.34;;;0.26;72.55
11223;BME280;5668;52.012;8.724;2022-11-20T04:08:57;99789.03;;;0.23;72.52
11223;BME280;5668;52.012;8.724;2022-11-20T04:11:26;99795.00;;;0.23;72.84
11223;BME280;5668;52.012;8.724;2022-11-20T04:13:55;99794.16;;;0.23;72.58
11223;BME280;5668;52.012;8.724;2022-11-20T04:16:23;99797.63;;;0.22;72.44
11223;BME280;5668;52.012;8.724;2022-11-20T04:18:52;99791.59;;;0.23;72.78
11223;BME280;5668;52.012;8.724;2022-11-20T04:21:20;99794.25;;;0.21;72.57
11223;BME280;5668;52.012;8.724;2022-11-20T04:23:49;99794.25;;;0.21;72.72
11223;BME280;5668;52.012;8.724;2022-11-20T04:26:16;99782.41;;;0.19;72.55
11223;BME280;5668;52.012;8.724;2022-11-20T04:28:44;99791.78;;;0.18;72.63
11223;BME280;5668;52.012;8.724;2022-11-20T04:31:12;99790.25;;;0.14;71.53
11223;BME280;5668;52.012;8.724;2022-11-20T04:33:40;99783.47;;;0.13;71.74
11223;BME280;5668;52.012;8.724;2022-11-20T04:36:11;99777.47;;;0.14;71.88
11223;BME280;5668;52.012;8.724;2022-11-20T04:38:39;99776.69;;;0.12;72.04
11223;BME280;5668;52.012;8.724;2022-11-20T04:41:17;99785.19;;;0.13;72.48
11223;BME280;5668;52.012;8.724;2022-11-20T04:43:47;99781.88;;;0.09;72.51
11223;BME280;5668;52.012;8.724;2022-11-20T04:46:16;99778.44;;;0.10;72.72
11223;BME280;5668;52.012;8.724;2022-11-20T04:48:43;99784.38;;;0.11;72.72
11223;BME280;5668;52.012;8.724;2022-11-20T04:51:10;99778.44;;;0.10;72.67
11223;BME280;5668;52.012;8.724;2022-11-20T04:53:38;99775.94;;;0.09;72.75
11223;BME280;5668;52.012;8.724;2022-11-20T04:56:08;99785.28;;;0.10;72.65
11223;BME280;5668;52.012;8.724;2022-11-20T04:58:37;99776.78;;;0.09;72.66
11223;BME280;5668;52.012;8.724;2022-11-20T05:01:06;99787.00;;;0.09;72.50
11223;BME280;5668;52.012;8.724;2022-11-20T05:03:34;99779.47;;;0.06;72.74
11223;BME280;5668;52.012;8.724;2022-11-20T05:06:01;99772.63;;;0.07;72.44
11223;BME280;5668;52.012;8.724;2022-11-20T05:08:29;99782.00;;;0.06;72.41
11223;BME280;5668;52.012;8.724;2022-11-20T05:11:00;99791.41;;;0.06;72.28
11223;BME280;5668;52.012;8.724;2022-11-20T05:13:29;99776.13;;;0.04;72.31
11223;BME280;5668;52.012;8.724;2022-11-20T05:16:00;99782.09;;;0.03;72.38
11223;BME280;5668;52.012;8.724;2022-11-20T05:18:27;99784.72;;;0.02;72.25
11223;BME280;5668;52.012;8.724;2022-11-20T05:20:55;99782.94;;;0.04;72.15
11223;BME280;5668;52.012;8.724;2022-11-20T05:23:23;99779.59;;;0.02;72.00
11223;BME280;5668;52.012;8.724;2022-11-20T05:25:52;99779.59;;;0.02;72.28
11223;BME280;5668;52.012;8.724;2022-11-20T05:28:20;99778.78;;;0.01;72.52
11223;BME280;5668;52.012;8.724;2022-11-20T05:30:49;99783.03;;;0.00;72.30
11223;BME280;5668;52.012;8.724;2022-11-20T05:33:17;99783.88;;;0.01;71.93
11223;BME280;5668;52.012;8.724;2022-11-20T05:35:44;99787.34;;;0.00;72.06
11223;BME280;5668;52.012;8.724;2022-11-20T05:38:11;99789.94;;;-0.02;72.03
11223;BME280;5668;52.012;8.724;2022-11-20T05:40:39;99778.91;;;-0.02;71.95
11223;BME280;5668;52.012;8.724;2022-11-20T05:43:06;99776.41;;;-0.04;72.03
11223;BME280;5668;52.012;8.724;2022-11-20T05:45:33;99776.44;;;-0.05;71.80
11223;BME280;5668;52.012;8.724;2022-11-20T05:48:02;99772.22;;;-0.06;72.07
11223;BME280;5668;52.012;8.724;2022-11-20T05:50:29;99762.00;;;-0.06;72.15
11223;BME280;5668;52.012;8.724;2022-11-20T05:52:58;99762.88;;;-0.07;71.88
11223;BME280;5668;52.012;8.724;2022-11-20T05:55:26;99762.88;;;-0.07;72.13
11223;BME280;5668;52.012;8.724;2022-11-20T05:57:53;99758.63;;;-0.07;71.76
11223;BME280;5668;52.012;8.724;2022-11-20T06:00:21;99762.22;;;-0.12;71.71
11223;BME280;5668;52.012;8.724;2022-11-20T06:02:48;99767.38;;;-0.14;71.81
11223;BME280;5668;52.012;8.724;2022-11-20T06:05:17;99759.81;;;-0.15;71.81
11223;BME280;5668;52.012;8.724;2022-11-20T06:07:44;99758.13;;;-0.16;71.57
11223;BME280;5668;52.012;8.724;2022-11-20T06:10:13;99758.28;;;-0.21;71.55
11223;BME280;5668;52.012;8.724;2022-11-20T06:12:40;99753.34;;;-0.25;71.45
11223;BME280;5668;52.012;8.724;2022-11-20T06:15:08;99753.28;;;-0.24;71.79
11223;BME280;5668;52.012;8.724;2022-11-20T06:17:36;99764.38;;;-0.25;72.08
11223;BME280;5668;52.012;8.724;2022-11-20T06:20:04;99768.69;;;-0.27;71.81
11223;BME280;5668;52.012;8.724;2022-11-20T06:22:34;99769.53;;;-0.26;72.01
11223;BME280;5668;52.012;8.724;2022-11-20T06:25:01;99772.00;;;-0.23;72.04
11223;BME280;5668;52.012;8.724;2022-11-20T06:27:28;99770.31;;;-0.24;72.02
11223;BME280;5668;52.012;8.724;2022-11-20T06:29:55;99765.25;;;-0.26;72.23
11223;BME280;5668;52.012;8.724;2022-11-20T06:32:23;99769.50;;;-0.25;72.47
11223;BME280;5668;52.012;8.724;2022-11-20T06:34:50;99763.53;;;-0.25;72.51
11223;BME280;5668;52.012;8.724;2022-11-20T06:37:17;99755.06;;;-0.26;72.42
11223;BME280;5668;52.012;8.724;2022-11-20T06:39:46;99760.13;;;-0.24;72.23
11223;BME280;5668;52.012;8.724;2022-11-20T06:42:13;99761.00;;;-0.25;72.27
11223;BME280;5668;52.012;8.724;2022-11-20T06:44:40;99754.31;;;-0.29;71.82
11223;BME280;5668;52.012;8.724;2022-11-20T06:47:07;99749.44;;;-0.35;70.89
11223;BME280;5668;52.012;8.724;2022-11-20T06:49:34;99759.84;;;-0.42;71.08
11223;BME280;5668;52.012;8.724;2022-11-20T06:52:03;99756.47;;;-0.42;71.61
11223;BME280;5668;52.012;8.724;2022-11-20T06:54:30;99758.09;;;-0.40;71.64
11223;BME280;5668;52.012;8.724;2022-11-20T06:56:59;99748.03;;;-0.44;69.94
11223;BME280;5668;52.012;8.724;2022-11-20T06:59:26;99756.00;;;-0.53;71.11
11223;BME280;5668;52.012;8.724;2022-11-20T07:01:53;99755.19;;;-0.54;71.65
11223;BME280;5668;52.012;8.724;2022-11-20T07:04:20;99761.94;;;-0.53;71.86
11223;BME280;5668;52.012;8.724;2022-11-20T07:06:48;99761.81;;;-0.50;72.32
11223;BME280;5668;52.012;8.724;2022-11-20T07:09:15;99767.59;;;-0.45;72.18
11223;BME280;5668;52.012;8.724;2022-11-20T07:11:43;99758.13;;;-0.41;72.60
11223;BME280;5668;52.012;8.724;2022-11-20T07:14:11;99765.25;;;-0.51;71.12
11223;BME280;5668;52.012;8.724;2022-11-20T07:16:39;99769.94;;;-0.63;70.81
11223;BME280;5668;52.012;8.724;2022-11-20T07:19:06;99768.22;;;-0.63;71.85
11223;BME280;5668;52.012;8.724;2022-11-20T07:21:33;99767.19;;;-0.57;72.30
11223;BME280;5668;52.012;8.724;2022-11-20T07:24:00;99777.25;;;-0.53;72.45
11223;BME280;5668;52.012;8.724;2022-11-20T07:26:28;99770.38;;;-0.51;72.43
11223;BME280;5668;52.012;8.724;2022-11-20T07:28:55;99770.28;;;-0.48;72.64
11223;BME280;5668;52.012;8.724;2022-11-20T07:31:24;99785.38;;;-0.42;72.58
11223;BME280;5668;52.012;8.724;2022-11-20T07:33:51;99789.59;;;-0.41;72.58
11223;BME280;5668;52.012;8.724;2022-11-20T07:36:18;99790.38;;;-0.38;72.56
11223;BME280;5668;52.012;8.724;2022-11-20T07:38:45;99782.72;;;-0.38;72.58
11223;BME280;5668;52.012;8.724;2022-11-20T07:41:12;99793.69;;;-0.36;72.73
11223;BME280;5668;52.012;8.724;2022-11-20T07:43:40;99787.75;;;-0.37;72.64
11223;BME280;5668;52.012;8.724;2022-11-20T07:46:07;99789.47;;;-0.38;72.61
11223;BME280;5668;52.012;8.724;2022-11-20T07:48:39;99791.13;;;-0.36;72.97
11223;BME280;5668;52.012;8.724;2022-11-20T07:51:06;99783.41;;;-0.33;72.96
11223;BME280;5668;52.012;8.724;2022-11-20T07:53:33;99787.63;;;-0.32;73.09
11223;BME280;5668;52.012;8.724;2022-11-20T07:56:01;99789.16;;;-0.28;73.11
11223;BME280;5668;52.012;8.724;2022-11-20T07:58:29;99778.19;;;-0.30;72.81
11223;BME280;5668;52.012;8.724;2022-11-20T08:01:01;99780.88;;;-0.35;72.91
11223;BME280;5668;52.012;8.724;2022-11-20T08:03:29;99778.38;;;-0.36;72.94
11223;BME280;5668;52.012;8.724;2022-11-20T08:06:00;99776.88;;;-0.42;73.12
11223;BME280;5668;52.012;8.724;2022-11-20T08:08:28;99774.53;;;-0.48;73.50
11223;BME280;5668;52.012;8.724;2022-11-20T08:10:57;99775.59;;;-0.54;73.61
11223;BME280;5668;52.012;8.724;2022-11-20T08:13:45;99778.91;;;-0.52;74.36
11223;BME280;5668;52.012;8.724;2022-11-20T08:16:29;99768.56;;;-0.47;74.88
11223;BME280;5668;52.012;8.724;2022-11-20T08:18:57;99773.44;;;-0.41;74.88
11223;BME280;5668;52.012;8.724;2022-11-20T08:21:25;99763.19;;;-0.40;75.05
11223;BME280;5668;52.012;8.724;2022-11-20T08:23:52;99754.75;;;-0.42;74.87
11223;BME280;5668;52.012;8.724;2022-11-20T08:26:21;99754.09;;;-0.47;75.40
11223;BME280;5668;52.012;8.724;2022-11-20T08:28:48;99760.72;;;-0.43;75.59
11223;BME280;5668;52.012;8.724;2022-11-20T08:31:16;99756.28;;;-0.38;76.22
11223;BME280;5668;52.012;8.724;2022-11-20T08:33:43;99751.09;;;-0.34;76.28
11223;BME280;5668;52.012;8.724;2022-11-20T08:36:10;99752.56;;;-0.27;76.18
11223;BME280;5668;52.012;8.724;2022-11-20T08:38:39;99751.66;;;-0.26;76.35
11223;BME280;5668;52.012;8.724;2022-11-20T08:41:06;99750.78;;;-0.25;76.63
11223;BME280;5668;52.012;8.724;2022-11-20T08:43:54;99763.38;;;-0.21;76.97
11223;BME280;5668;52.012;8.724;2022-11-20T08:46:22;99757.34;;;-0.18;76.97
11223;BME280;5668;52.012;8.724;2022-11-20T08:48:49;99753.22;;;-0.22;77.26
11223;BME280;5668;52.012;8.724;2022-11-20T08:51:17;99756.78;;;-0.26;78.31
11223;BME280;5668;52.012;8.724;2022-11-20T08:53:46;99761.09;;;-0.28;78.69
11223;BME280;5668;52.012;8.724;2022-11-20T08:56:15;99766.16;;;-0.27;79.02
11223;BME280;5668;52.012;8.724;2022-11-20T08:58:43;99767.78;;;-0.24;79.54
11223;BME280;5668;52.012;8.724;2022-11-20T09:01:10;99765.97;;;-0.22;79.81
11223;BME280;5668;52.012;8.724;2022-11-20T09:03:38;99765.97;;;-0.22;80.05
11223;BME280;5668;52.012;8.724;2022-11-20T09:06:07;99767.78;;;-0.24;80.57
11223;BME280;5668;52.012;8.724;2022-11-20T09:08:35;99771.06;;;-0.22;81.06
11223;BME280;5668;52.012;8.724;2022-11-20T09:11:04;99768.44;;;-0.19;81.60
11223;BME280;5668;52.012;8.724;2022-11-20T09:13:33;99770.81;;;-0.15;81.76
11223;BME280;5668;52.012;8.724;2022-11-20T09:16:02;99775.78;;;-0.10;81.83
11223;BME280;5668;52.012;8.724;2022-11-20T09:18:30;99773.88;;;-0.05;81.84
11223;BME280;5668;52.012;8.724;2022-11-20T09:20:59;99771.19;;;-0.01;82.27
11223;BME280;5668;52.012;8.724;2022-11-20T09:23:27;99765.84;;;0.06;81.93
11223;BME280;5668;52.012;8.724;2022-11-20T09:25:54;99765.72;;;0.09;82.14
11223;BME280;5668;52.012;8.724;2022-11-20T09:28:26;99764.78;;;0.11;82.24
11223;BME280;5668;52.012;8.724;2022-11-20T09:30:53;99755.31;;;0.15;82.32
11223;BME280;5668;52.012;8.724;2022-11-20T09:33:21;99757.63;;;0.21;82.38
11223;BME280;5668;52.012;8.724;2022-11-20T09:35:48;99760.81;;;0.27;82.35
11223;BME280;5668;52.012;8.724;2022-11-20T09:38:15;99752.94;;;0.32;82.72
11223;BME280;5668;52.012;8.724;2022-11-20T09:40:48;99758.66;;;0.38;83.14
11223;BME280;5668;52.012;8.724;2022-11-20T09:43:20;99756.75;;;0.45;83.11
11223;BME280;5668;52.012;8.724;2022-11-20T09:46:00;99751.19;;;0.56;83.32
11223;BME280;5668;52.012;8.724;2022-11-20T09:48:53;99751.63;;;0.67;83.65
11223;BME280;5668;52.012;8.724;2022-11-20T09:51:34;99743.66;;;0.74;84.03
11223;BME280;5668;52.012;8.724;2022-11-20T09:54:13;99745.78;;;0.85;85.06
11223;BME280;5668;52.012;8.724;2022-11-20T09:56:44;99739.44;;;0.95;85.33
11223;BME280;5668;52.012;8.724;2022-11-20T09:59:24;99738.22;;;1.04;85.57
11223;BME280;5668;52.012;8.724;2022-11-20T10:01:55;99737.94;;;1.11;85.33
11223;BME280;5668;52.012;8.724;2022-11-20T10:04:23;99736.78;;;1.19;85.58
11223;BME280;5668;52.012;8.724;2022-11-20T10:06:55;99741.44;;;1.29;85.14
11223;BME280;5668;52.012;8.724;2022-11-20T10:09:27;99737.66;;;1.38;85.20
11223;BME280;5668;52.012;8.724;2022-11-20T10:12:06;99737.19;;;1.50;85.43
11223;BME280;5668;52.012;8.724;2022-11-20T10:14:46;99735.88;;;1.60;85.00
11223;BME280;5668;52.012;8.724;2022-11-20T10:17:28;99722.69;;;1.69;85.82
11223;BME280;5668;52.012;8.724;2022-11-20T10:20:16;99718.06;;;1.77;85.74
11223;BME280;5668;52.012;8.724;2022-11-20T10:22:58;99702.41;;;1.83;85.29
11223;BME280;5668;52.012;8.724;2022-11-20T10:25:37;99688.66;;;1.86;85.11
11223;BME280;5668;52.012;8.724;2022-11-20T10:28:20;99683.25;;;1.92;84.93
11223;BME280;5668;52.012;8.724;2022-11-20T10:30:57;99674.50;;;1.96;84.19
11223;BME280;5668;52.012;8.724;2022-11-20T10:33:31;99669.25;;;1.99;83.49
11223;BME280;5668;52.012;8.724;2022-11-20T10:36:08;99666.56;;;2.02;83.54
11223;BME280;5668;52.012;8.724;2022-11-20T10:38:43;99676.72;;;2.04;83.94
11223;BME280;5668;52.012;8.724;2022-11-20T10:41:17;99686.97;;;2.04;83.27
11223;BME280;5668;52.012;8.724;2022-11-20T10:43:58;99682.56;;;2.07;83.65
11223;BME280;5668;52.012;8.724;2022-11-20T10:46:34;99695.88;;;2.15;83.08
11223;BME280;5668;52.012;8.724;2022-11-20T10:49:12;99693.72;;;2.25;82.91
11223;BME280;5668;52.012;8.724;2022-11-20T10:51:49;99675.25;;;2.36;83.75
11223;BME280;5668;52.012;8.724;2022-11-20T10:54:24;99670.69;;;2.42;83.23
11223;BME280;5668;52.012;8.724;2022-11-20T10:56:59;99662.44;;;2.54;84.06
11223;BME280;5668;52.012;8.724;2022-11-20T10:59:41;99656.56;;;2.69;85.83
11223;BME280;5668;52.012;8.724;2022-11-20T11:02:19;99646.28;;;2.87;86.59
11223;BME280;5668;52.012;8.724;2022-11-20T11:04:50;99637.69;;;3.05;87.15
11223;BME280;5668;52.012;8.724;2022-11-20T11:07:21;99642.06;;;3.20;85.36
11223;BME280;5668;52.012;8.724;2022-11-20T11:09:50;99644.16;;;3.29;84.22
11223;BME280;5668;52.012;8.724;2022-11-20T11:12:19;99650.47;;;3.39;85.13
11223;BME280;5668;52.012;8.724;2022-11-20T11:14:49;99641.84;;;3.58;85.03
11223;BME280;5668;52.012;8.724;2022-11-20T11:17:28;99647.66;;;3.77;84.80
11223;BME280;5668;52.012;8.724;2022-11-20T11:20:16;99644.88;;;3.97;84.81
11223;BME280;5668;52.012;8.724;2022-11-20T11:22:47;99636.34;;;4.12;84.84
11223;BME280;5668;52.012;8.724;2022-11-20T11:25:26;99638.06;;;4.27;84.18
11223;BME280;5668;52.012;8.724;2022-11-20T11:27:56;99631.50;;;4.38;84.47
11223;BME280;5668;52.012;8.724;2022-11-20T11:30:25;99619.44;;;4.54;83.70
11223;BME280;5668;52.012;8.724;2022-11-20T11:33:03;99616.75;;;4.71;81.80
11223;BME280;5668;52.012;8.724;2022-11-20T11:35:38;99629.69;;;4.70;78.36
11223;BME280;5668;52.012;8.724;2022-11-20T11:38:10;99636.31;;;4.74;77.56
11223;BME280;5668;52.012;8.724;2022-11-20T11:40:58;99628.34;;;4.78;75.86
11223;BME280;5668;52.012;8.724;2022-11-20T11:43:31;99629.91;;;4.81;75.00
11223;BME280;5668;52.012;8.724;2022-11-20T11:46:33;99633.59;;;4.91;74.12
11223;BME280;5668;52.012;8.724;2022-11-20T11:49:16;99631.63;;;4.96;73.95
11223;BME280;5668;52.012;8.724;2022-11-20T11:51:59;99630.22;;;5.04;73.71
11223;BME280;5668;52.012;8.724;2022-11-20T11:54:31;99624.28;;;5.18;73.92
11223;BME280;5668;52.012;8.724;2022-11-20T11:57:09;99615.00;;;5.30;72.95
11223;BME280;5668;52.012;8.724;2022-11-20T11:59:49;99615.84;;;5.30;72.04
11223;BME280;5668;52.012;8.724;2022-11-20T12:02:29;99614.47;;;5.39;72.16
11223;BME280;5668;52.012;8.724;2022-11-20T12:05:04;99610.78;;;5.43;72.12
11223;BME280;5668;52.012;8.724;2022-11-20T12:07:42;99607.81;;;5.49;72.03
11223;BME280;5668;52.012;8.724;2022-11-20T12:10:29;99608.19;;;5.57;71.14
11223;BME280;5668;52.012;8.724;2022-11-20T12:13:08;99611.31;;;5.62;70.94
11223;BME280;5668;52.012;8.724;2022-11-20T12:15:43;99606.72;;;5.67;71.08
11223;BME280;5668;52.012;8.724;2022-11-20T12:18:15;99604.78;;;5.71;70.80
11223;BME280;5668;52.012;8.724;2022-11-20T12:20:49;99603.97;;;5.70;69.30
11223;BME280;5668;52.012;8.724;2022-11-20T12:23:25;99599.38;;;5.61;68.07
11223;BME280;5668;52.012;8.724;2022-11-20T12:25:58;99594.22;;;5.61;69.18
11223;BME280;5668;52.012;8.724;2022-11-20T12:28:44;99598.53;;;5.61;67.68
11223;BME280;5668;52.012;8.724;2022-11-20T12:37:04;99575.81;;;5.53;68.20
11223;BME280;5668;52.012;8.724;2022-11-20T12:39:41;99575.97;;;5.50;68.43
11223;BME280;5668;52.012;8.724;2022-11-20T12:42:20;99575.06;;;5.51;68.11
11223;BME280;5668;52.012;8.724;2022-11-20T12:45:25;99574.69;;;5.43;68.95
11223;BME280;5668;52.012;8.724;2022-11-20T12:50:59;99562.84;;;5.40;69.06
11223;BME280;5668;52.012;8.724;2022-11-20T12:53:39;99563.69;;;5.41;68.77
11223;BME280;5668;52.012;8.724;2022-11-20T12:56:21;99567.19;;;5.40;68.83
11223;BME280;5668;52.012;8.724;2022-11-20T12:58:58;99564.22;;;5.32;67.49
11223;BME280;5668;52.012;8.724;2022-11-20T13:01:35;99562.75;;;5.28;67.97
11223;BME280;5668;52.012;8.724;2022-11-20T13:04:20;99567.34;;;5.23;68.52
11223;BME280;5668;52.012;8.724;2022-11-20T13:06:49;99561.38;;;5.22;69.11
11223;BME280;5668;52.012;8.724;2022-11-20T13:09:20;99570.69;;;5.25;68.74
11223;BME280;5668;52.012;8.724;2022-11-20T13:11:57;99569.84;;;5.24;69.01
11223;BME280;5668;52.012;8.724;2022-11-20T13:14:34;99563.03;;;5.23;68.74
11223;BME280;5668;52.012;8.724;2022-11-20T13:17:09;99563.19;;;5.20;68.21
11223;BME280;5668;52.012;8.724;2022-11-20T13:19:38;99553.34;;;5.13;68.66
11223;BME280;5668;52.012;8.724;2022-11-20T13:22:07;99545.63;;;5.13;68.73
11223;BME280;5668;52.012;8.724;2022-11-20T13:24:35;99550.78;;;5.13;69.02
11223;BME280;5668;52.012;8.724;2022-11-20T13:27:17;99539.94;;;5.07;69.01
11223;BME280;5668;52.012;8.724;2022-11-20T13:29:47;99541.22;;;5.00;68.87
11223;BME280;5668;52.012;8.724;2022-11-20T13:32:25;99525.94;;;4.97;69.05
11223;BME280;5668;52.012;8.724;2022-11-20T13:34:55;99525.31;;;4.94;69.01
11223;BME280;5668;52.012;8.724;2022-11-20T13:37:28;99530.38;;;4.95;68.85
11223;BME280;5668;52.012;8.724;2022-11-20T13:40:12;99527.97;;;4.92;68.59
11223;BME280;5668;52.012;8.724;2022-11-20T13:42:45;99520.44;;;4.89;69.07
11223;BME280;5668;52.012;8.724;2022-11-20T13:45:23;99512.00;;;4.87;68.75
11223;BME280;5668;52.012;8.724;2022-11-20T13:47:52;99519.81;;;4.86;69.24